Time;durP1;ratioP1;P1;durP2;ratioP2;P2;SDS_P1;SDS_P2;PMS_P1;PMS_P2;Temp;Humidity;BMP_temperature;BMP_pressure;BME280_temperature;BME280_humidity;BME280_pressure;Samples;Min_cycle;Max_cycle;Signal;HPM_P1;HPM_P2
2021/08/25 00:01:35;;;;;;;4.22;1.42;;;20.70;72.30;;;;;;5083084;28;20051;-71
2021/08/25 00:04:01;;;;;;;2.85;1.50;;;20.60;72.20;;;;;;5095153;28;20101;-71
2021/08/25 00:06:26;;;;;;;1.88;1.20;;;20.70;72.30;;;;;;5076898;28;20413;-70
2021/08/25 00:08:52;;;;;;;2.92;1.50;;;20.60;72.20;;;;;;5095221;28;20040;-70
2021/08/25 00:11:18;;;;;;;2.80;1.60;;;20.60;72.20;;;;;;5098696;28;20036;-71
2021/08/25 00:13:44;;;;;;;1.90;1.20;;;20.60;72.30;;;;;;5098613;28;20036;-71
2021/08/25 00:16:11;;;;;;;2.53;1.30;;;20.60;72.30;;;;;;5098632;28;20107;-70
2021/08/25 00:18:37;;;;;;;2.53;1.30;;;20.60;72.30;;;;;;5098767;28;20058;-70
2021/08/25 00:21:03;;;;;;;3.53;1.42;;;20.60;72.30;;;;;;5098798;28;20051;-71
2021/08/25 00:23:29;;;;;;;2.25;1.08;;;20.60;72.20;;;;;;5098072;28;20083;-71
2021/08/25 00:25:56;;;;;;;2.38;1.10;;;20.60;72.30;;;;;;5098210;28;20083;-71
2021/08/25 00:28:22;;;;;;;2.90;1.15;;;20.60;72.30;;;;;;5098452;28;20048;-70
2021/08/25 00:30:48;;;;;;;2.78;1.45;;;20.60;72.30;;;;;;5098368;28;20113;-69
2021/08/25 00:33:14;;;;;;;2.45;1.60;;;20.60;72.40;;;;;;5098570;28;20044;-70
2021/08/25 00:35:40;;;;;;;3.00;1.50;;;20.60;72.40;;;;;;5098208;28;20055;-70
2021/08/25 00:38:07;;;;;;;1.80;1.38;;;20.60;72.40;;;;;;5098113;28;20044;-71
2021/08/25 00:40:33;;;;;;;3.35;1.65;;;20.60;72.40;;;;;;5098391;28;20040;-70
2021/08/25 00:43:08;;;;;;;3.25;1.20;;;20.60;72.40;;;;;;5098712;28;20035;-70
2021/08/25 00:45:41;;;;;;;2.00;1.20;;;20.60;72.30;;;;;;5098354;28;20120;-70
2021/08/25 00:48:07;;;;;;;2.00;1.30;;;20.60;72.40;;;;;;5098777;28;20075;-71
2021/08/25 00:50:35;;;;;;;2.80;1.20;;;20.50;72.30;;;;;;5098074;28;20309;-71
2021/08/25 00:53:03;;;;;;;2.95;1.20;;;20.50;73.00;;;;;;5098069;28;20328;-71
2021/08/25 00:55:32;;;;;;;3.35;1.50;;;20.60;72.40;;;;;;5097999;28;20036;-71
2021/08/25 00:58:00;;;;;;;2.72;1.42;;;20.50;72.30;;;;;;5097906;28;20131;-71
2021/08/25 01:00:26;;;;;;;2.38;1.20;;;20.50;72.40;;;;;;5097505;28;20056;-70
2021/08/25 01:02:55;;;;;;;2.38;1.63;;;20.50;72.40;;;;;;5097721;28;20040;-70
2021/08/25 01:05:22;;;;;;;1.70;1.10;;;20.50;72.40;;;;;;5097646;28;20055;-72
2021/08/25 01:07:48;;;;;;;2.58;1.35;;;20.50;72.40;;;;;;5097613;28;20400;-71
2021/08/25 01:10:28;;;;;;;1.63;1.30;;;20.50;72.40;;;;;;5097994;28;20119;-70
2021/08/25 01:13:01;;;;;;;2.05;1.35;;;20.50;72.30;;;;;;5097606;28;20039;-71
2021/08/25 01:15:32;;;;;;;2.67;1.35;;;20.50;72.40;;;;;;5097769;28;20044;-71
2021/08/25 01:17:59;;;;;;;1.90;1.23;;;20.50;72.40;;;;;;5097366;28;20059;-71
2021/08/25 01:20:26;;;;;;;1.60;1.20;;;20.50;72.40;;;;;;5097085;28;20043;-71
2021/08/25 01:22:54;;;;;;;2.90;1.00;;;20.50;72.40;;;;;;5096852;28;20040;-71
2021/08/25 01:25:23;;;;;;;2.13;1.35;;;20.40;72.40;;;;;;5097466;28;20105;-71
2021/08/25 01:27:55;;;;;;;2.08;1.20;;;20.40;72.40;;;;;;5097382;28;20332;-71
2021/08/25 01:30:24;;;;;;;3.03;1.50;;;20.40;72.30;;;;;;5096934;28;20537;-70
2021/08/25 01:32:50;;;;;;;2.50;1.40;;;20.40;72.40;;;;;;5097067;28;20095;-70
2021/08/25 01:35:16;;;;;;;2.65;1.27;;;20.40;72.40;;;;;;5097765;28;20071;-71
2021/08/25 01:37:42;;;;;;;1.88;1.13;;;20.40;72.30;;;;;;5079184;28;20050;-71
2021/08/25 01:40:08;;;;;;;2.28;1.20;;;20.40;72.30;;;;;;5096970;28;20451;-71
2021/08/25 01:42:34;;;;;;;2.10;1.52;;;20.40;72.30;;;;;;5097157;28;20048;-71
2021/08/25 01:44:59;;;;;;;2.03;1.10;;;20.40;72.30;;;;;;5097058;28;20043;-71
2021/08/25 01:47:26;;;;;;;1.85;1.00;;;20.40;72.40;;;;;;5096863;28;20100;-70
2021/08/25 01:49:52;;;;;;;2.05;1.52;;;20.40;72.30;;;;;;5097088;28;20052;-71
2021/08/25 01:52:18;;;;;;;2.70;1.33;;;20.40;72.30;;;;;;5079062;28;20447;-70
2021/08/25 01:54:48;;;;;;;2.78;1.42;;;20.40;72.30;;;;;;5096616;28;20040;-71
2021/08/25 01:57:14;;;;;;;4.72;1.58;;;20.40;72.20;;;;;;5096774;28;20048;-70
2021/08/25 01:59:40;;;;;;;2.13;1.10;;;20.40;72.20;;;;;;5096650;28;20177;-70
2021/08/25 02:02:06;;;;;;;3.03;1.33;;;20.30;72.20;;;;;;5078504;28;20051;-70
2021/08/25 02:04:33;;;;;;;3.25;1.15;;;20.40;72.30;;;;;;5096726;28;20127;-70
2021/08/25 02:06:58;;;;;;;1.48;1.20;;;20.30;72.20;;;;;;5078575;28;20044;-71
2021/08/25 02:09:24;;;;;;;2.13;0.90;;;20.30;72.20;;;;;;5097266;28;20051;-72
2021/08/25 02:11:50;;;;;;;2.83;1.08;;;20.40;72.30;;;;;;5096630;28;20426;-70
2021/08/25 02:14:16;;;;;;;1.40;1.00;;;20.40;72.30;;;;;;5096689;28;20111;-70
2021/08/25 02:16:42;;;;;;;1.92;1.00;;;20.40;72.30;;;;;;5096518;28;20048;-70
2021/08/25 02:19:08;;;;;;;2.25;1.20;;;20.40;72.30;;;;;;5096351;28;20042;-72
2021/08/25 02:21:34;;;;;;;1.95;1.17;;;20.40;72.40;;;;;;5096093;28;20047;-70
2021/08/25 02:24:00;;;;;;;2.67;1.10;;;20.30;72.30;;;;;;5096461;28;20043;-71
2021/08/25 02:26:26;;;;;;;3.60;1.25;;;20.30;72.30;;;;;;5096211;28;20142;-70
2021/08/25 02:28:53;;;;;;;2.20;1.23;;;20.30;72.30;;;;;;5095989;28;20040;-71
2021/08/25 02:31:21;;;;;;;1.92;1.13;;;20.30;72.30;;;;;;5095855;28;20055;-70
2021/08/25 02:33:48;;;;;;;2.50;1.13;;;20.30;72.30;;;;;;5096338;28;20338;-71
2021/08/25 02:36:15;;;;;;;1.90;1.10;;;20.30;72.30;;;;;;5095549;28;20127;-71
2021/08/25 02:38:41;;;;;;;1.75;0.98;;;20.30;72.30;;;;;;5096639;28;20066;-72
2021/08/25 02:41:10;;;;;;;3.00;1.65;;;20.30;72.30;;;;;;5096071;28;20118;-71
2021/08/25 02:43:36;;;;;;;2.17;1.20;;;20.30;72.20;;;;;;5095504;28;20443;-71
2021/08/25 02:46:02;;;;;;;2.60;1.02;;;20.30;72.20;;;;;;5096192;28;20040;-70
2021/08/25 02:48:28;;;;;;;1.67;1.08;;;20.30;72.20;;;;;;5095670;28;20047;-71
2021/08/25 02:50:54;;;;;;;2.63;1.13;;;20.20;72.20;;;;;;5095696;28;20040;-70
2021/08/25 02:53:19;;;;;;;2.90;1.27;;;20.30;72.20;;;;;;5095845;28;20044;-70
2021/08/25 02:55:46;;;;;;;2.40;1.23;;;20.20;72.10;;;;;;5095959;28;20176;-70
2021/08/25 02:58:12;;;;;;;2.28;1.60;;;20.20;72.00;;;;;;5095634;28;20058;-70
2021/08/25 03:00:38;;;;;;;2.83;1.45;;;20.20;72.10;;;;;;5095235;28;20063;-71
2021/08/25 03:03:04;;;;;;;3.22;1.33;;;20.20;72.10;;;;;;5095463;28;20350;-70
2021/08/25 03:05:30;;;;;;;2.47;1.20;;;20.20;72.10;;;;;;5095911;28;20044;-70
2021/08/25 03:07:55;;;;;;;2.25;1.45;;;20.20;72.10;;;;;;5095622;28;20090;-71
2021/08/25 03:10:22;;;;;;;2.30;1.40;;;20.20;72.10;;;;;;5095611;28;20079;-70
2021/08/25 03:12:47;;;;;;;2.25;1.30;;;20.20;72.10;;;;;;5095886;28;20079;-70
2021/08/25 03:15:13;;;;;;;2.17;1.33;;;20.20;72.10;;;;;;5095784;28;20287;-70
2021/08/25 03:17:39;;;;;;;1.85;1.27;;;20.20;72.10;;;;;;5095639;28;20455;-70
2021/08/25 03:20:07;;;;;;;1.85;1.30;;;20.20;72.10;;;;;;5095523;28;20032;-71
2021/08/25 03:22:33;;;;;;;2.20;1.13;;;20.20;72.10;;;;;;5095466;28;20454;-70
2021/08/25 03:24:58;;;;;;;1.38;1.17;;;20.20;72.10;;;;;;5095760;28;20036;-71
2021/08/25 03:27:24;;;;;;;1.65;1.20;;;20.20;72.10;;;;;;5095001;28;20466;-70
2021/08/25 03:29:50;;;;;;;3.40;1.65;;;20.20;72.00;;;;;;5095420;28;20040;-71
2021/08/25 03:32:16;;;;;;;1.77;1.35;;;20.10;72.10;;;;;;5095842;28;20442;-71
2021/08/25 03:34:41;;;;;;;2.60;1.42;;;20.10;72.00;;;;;;5095132;28;20114;-71
2021/08/25 03:37:07;;;;;;;2.58;1.50;;;20.10;72.10;;;;;;5095293;28;20042;-70
2021/08/25 03:39:33;;;;;;;2.40;1.35;;;20.10;72.20;;;;;;5095192;28;20044;-71
2021/08/25 03:41:59;;;;;;;1.70;1.08;;;20.10;72.10;;;;;;5094971;28;20051;-71
2021/08/25 03:44:25;;;;;;;2.75;1.02;;;20.10;72.10;;;;;;5095852;28;20044;-71
2021/08/25 03:46:51;;;;;;;2.50;1.15;;;20.10;72.20;;;;;;5099107;28;20047;-70
2021/08/25 03:49:16;;;;;;;1.52;0.90;;;20.10;72.10;;;;;;5081430;28;20044;-71
2021/08/25 03:51:42;;;;;;;3.03;1.30;;;20.00;72.10;;;;;;5098975;28;20477;-70
2021/08/25 03:54:08;;;;;;;1.75;1.27;;;20.10;72.10;;;;;;5099337;28;20044;-70
2021/08/25 03:56:34;;;;;;;2.05;1.30;;;20.10;72.10;;;;;;5099399;28;20040;-70
2021/08/25 03:59:00;;;;;;;2.08;1.10;;;20.10;72.10;;;;;;5098960;28;20401;-71
2021/08/25 04:01:25;;;;;;;2.10;1.40;;;20.10;72.10;;;;;;5098723;28;20078;-70
2021/08/25 04:03:51;;;;;;;2.35;1.30;;;20.00;72.00;;;;;;5098313;28;20052;-71
2021/08/25 04:06:17;;;;;;;1.88;1.27;;;20.00;72.10;;;;;;5098984;28;20101;-70
2021/08/25 04:08:43;;;;;;;2.97;1.48;;;20.00;72.00;;;;;;5098995;28;20058;-70
2021/08/25 04:11:08;;;;;;;3.35;1.40;;;20.00;72.00;;;;;;5098623;28;20039;-71
2021/08/25 04:13:34;;;;;;;2.85;1.50;;;20.00;71.90;;;;;;5098671;28;20056;-70
2021/08/25 04:16:00;;;;;;;2.63;1.40;;;20.00;71.90;;;;;;5098590;28;20146;-71
2021/08/25 04:18:26;;;;;;;2.53;1.30;;;20.00;71.80;;;;;;5098792;28;20044;-70
2021/08/25 04:20:52;;;;;;;3.22;1.35;;;20.00;71.90;;;;;;5098436;28;20036;-70
2021/08/25 04:23:18;;;;;;;2.35;1.20;;;20.00;71.90;;;;;;5099021;28;20809;-70
2021/08/25 04:25:44;;;;;;;2.20;1.20;;;20.00;71.90;;;;;;5098395;28;20075;-71
2021/08/25 04:28:10;;;;;;;1.63;1.20;;;20.00;71.80;;;;;;5089130;28;20080;-70
2021/08/25 04:30:37;;;;;;;2.03;1.10;;;20.00;71.90;;;;;;5077975;28;20035;-72
2021/08/25 04:33:03;;;;;;;5.65;1.40;;;20.00;71.90;;;;;;5078207;28;20045;-70
2021/08/25 04:35:29;;;;;;;2.97;1.20;;;20.00;72.00;;;;;;5094368;28;20032;-71
2021/08/25 04:37:55;;;;;;;2.22;1.10;;;19.90;72.00;;;;;;5097673;28;20040;-71
2021/08/25 04:40:20;;;;;;;2.85;1.08;;;19.90;72.10;;;;;;5114582;28;20036;-71
2021/08/25 04:42:46;;;;;;;3.53;1.42;;;19.90;71.90;;;;;;5102657;28;20438;-74
2021/08/25 04:45:12;;;;;;;3.58;1.08;;;19.90;71.80;;;;;;5109811;28;20040;-71
2021/08/25 04:47:38;;;;;;;1.70;0.98;;;19.90;71.80;;;;;;5097974;28;20040;-72
2021/08/25 04:50:04;;;;;;;2.70;1.48;;;19.90;72.10;;;;;;5098656;28;20040;-72
2021/08/25 04:52:30;;;;;;;4.82;1.38;;;19.90;71.90;;;;;;5096517;28;20328;-72
2021/08/25 04:54:55;;;;;;;5.13;1.70;;;19.90;72.00;;;;;;5089001;28;20189;-72
2021/08/25 04:57:21;;;;;;;2.97;1.80;;;19.90;72.00;;;;;;5077795;28;20045;-70
2021/08/25 04:59:47;;;;;;;4.05;1.80;;;19.90;71.70;;;;;;5077307;28;20367;-70
2021/08/25 05:02:12;;;;;;;6.38;1.90;;;19.90;70.20;;;;;;5077223;28;20064;-70
2021/08/25 05:04:38;;;;;;;4.63;2.13;;;19.80;69.40;;;;;;5077793;28;20517;-69
2021/08/25 05:07:04;;;;;;;5.97;2.72;;;19.70;69.30;;;;;;5077334;28;20063;-70
2021/08/25 05:09:29;;;;;;;7.03;2.50;;;19.60;69.40;;;;;;5076990;28;20044;-71
2021/08/25 05:11:56;;;;;;;5.50;1.83;;;19.50;69.60;;;;;;5059193;28;20044;-71
2021/08/25 05:14:22;;;;;;;3.20;2.17;;;19.30;69.90;;;;;;5077072;28;20127;-70
2021/08/25 05:16:48;;;;;;;4.88;2.33;;;19.30;70.10;;;;;;5077177;28;20087;-69
2021/08/25 05:19:16;;;;;;;6.60;2.97;;;19.20;70.40;;;;;;5077935;28;20040;-68
2021/08/25 05:21:42;;;;;;;4.00;2.60;;;19.20;70.70;;;;;;5077382;28;20051;-70
2021/08/25 05:24:10;;;;;;;6.05;2.72;;;19.10;70.90;;;;;;5077128;28;20041;-71
2021/08/25 05:26:36;;;;;;;3.53;2.58;;;19.00;71.20;;;;;;5059371;28;20122;-69
2021/08/25 05:29:02;;;;;;;6.00;2.65;;;19.00;71.30;;;;;;5076714;28;20507;-69
2021/08/25 05:31:27;;;;;;;4.50;2.72;;;18.90;71.50;;;;;;5076970;28;20048;-68
2021/08/25 05:33:56;;;;;;;3.40;2.35;;;18.90;71.80;;;;;;5077071;28;20432;-69
2021/08/25 05:36:22;;;;;;;4.15;3.22;;;18.90;72.00;;;;;;5076600;28;20048;-69
2021/08/25 05:38:47;;;;;;;6.57;3.05;;;18.90;72.10;;;;;;5081081;28;20394;-69
2021/08/25 05:41:13;;;;;;;3.45;2.72;;;18.80;72.30;;;;;;5097003;28;20078;-69
2021/08/25 05:43:39;;;;;;;4.38;2.60;;;18.80;72.60;;;;;;5094007;28;20052;-70
2021/08/25 05:46:05;;;;;;;9.40;2.67;;;18.70;72.70;;;;;;5096561;28;20445;-70
2021/08/25 05:48:31;;;;;;;5.38;2.95;;;18.70;72.80;;;;;;5096377;28;20043;-70
2021/08/25 05:50:57;;;;;;;7.68;2.67;;;18.70;72.90;;;;;;5095732;28;20051;-69
2021/08/25 05:53:22;;;;;;;6.15;2.65;;;18.70;73.10;;;;;;5096474;28;20055;-69
2021/08/25 05:55:48;;;;;;;6.13;1.98;;;18.70;73.30;;;;;;5094454;28;20075;-69
2021/08/25 05:58:14;;;;;;;4.45;1.70;;;18.70;73.60;;;;;;5096587;28;20040;-70
2021/08/25 06:00:40;;;;;;;3.25;1.40;;;18.70;73.80;;;;;;5096348;28;20066;-69
2021/08/25 06:03:06;;;;;;;3.13;1.13;;;18.80;73.90;;;;;;5096093;28;20040;-70
2021/08/25 06:05:32;;;;;;;3.80;1.30;;;18.80;73.80;;;;;;5096377;28;20047;-68
2021/08/25 06:07:58;;;;;;;5.22;1.60;;;18.90;73.90;;;;;;5095957;28;20395;-69
2021/08/25 06:10:23;;;;;;;6.32;1.27;;;19.00;74.00;;;;;;5096367;28;20123;-74
2021/08/25 06:12:49;;;;;;;7.93;1.60;;;19.00;74.10;;;;;;5096540;28;20090;-69
2021/08/25 06:15:14;;;;;;;9.05;1.25;;;19.10;74.30;;;;;;5097117;28;20044;-70
2021/08/25 06:17:40;;;;;;;10.70;1.50;;;19.20;74.10;;;;;;5096216;28;20036;-70
2021/08/25 06:20:06;;;;;;;7.70;1.48;;;19.20;74.00;;;;;;5096085;28;20530;-70
2021/08/25 06:22:32;;;;;;;10.32;1.75;;;19.30;73.90;;;;;;5096002;28;20158;-69
2021/08/25 06:24:58;;;;;;;7.70;1.17;;;19.30;73.80;;;;;;5096289;28;20075;-68
2021/08/25 06:27:25;;;;;;;8.10;1.10;;;19.30;73.60;;;;;;5096380;28;20048;-69
2021/08/25 06:29:51;;;;;;;5.47;1.27;;;19.40;73.60;;;;;;5096042;28;20123;-69
2021/08/25 06:32:17;;;;;;;6.43;1.30;;;19.40;73.50;;;;;;5096261;28;20044;-68
2021/08/25 06:34:43;;;;;;;7.90;1.55;;;19.40;73.40;;;;;;5096733;28;20050;-69
2021/08/25 06:37:08;;;;;;;4.15;1.10;;;19.50;73.40;;;;;;5095567;28;20474;-69
2021/08/25 06:39:34;;;;;;;7.03;1.50;;;19.50;73.40;;;;;;5078449;28;20044;-68
2021/08/25 06:42:00;;;;;;;3.38;1.30;;;19.50;73.30;;;;;;5095667;28;20327;-68
2021/08/25 06:44:26;;;;;;;4.85;1.25;;;19.50;73.30;;;;;;5095992;28;20036;-69
2021/08/25 06:46:52;;;;;;;4.85;1.05;;;19.50;73.30;;;;;;5096093;28;20414;-68
2021/08/25 06:49:17;;;;;;;4.55;1.05;;;19.60;73.20;;;;;;5096571;28;20562;-69
2021/08/25 06:51:43;;;;;;;4.57;0.95;;;19.60;73.20;;;;;;5095584;28;20186;-70
2021/08/25 06:54:09;;;;;;;3.78;0.90;;;19.60;73.10;;;;;;5095434;28;20048;-69
2021/08/25 06:56:35;;;;;;;2.70;1.10;;;19.60;73.10;;;;;;5095751;28;20051;-70
2021/08/25 06:59:01;;;;;;;3.17;0.77;;;19.60;73.10;;;;;;5095805;28;20079;-69
2021/08/25 07:01:26;;;;;;;3.90;0.82;;;19.60;73.10;;;;;;5095582;28;20052;-69
2021/08/25 07:03:52;;;;;;;2.72;0.90;;;19.70;73.70;;;;;;5095016;28;20126;-70
2021/08/25 07:06:19;;;;;;;1.67;0.68;;;19.70;73.00;;;;;;5095076;28;20040;-70
2021/08/25 07:08:46;;;;;;;4.80;0.90;;;19.70;73.00;;;;;;5095433;28;20121;-70
2021/08/25 07:11:11;;;;;;;2.20;0.88;;;19.80;73.00;;;;;;5095766;28;20374;-70
2021/08/25 07:13:37;;;;;;;3.58;1.02;;;19.80;72.90;;;;;;5078157;28;20048;-69
2021/08/25 07:16:03;;;;;;;5.18;1.35;;;19.80;72.90;;;;;;5095826;28;20105;-69
2021/08/25 07:18:29;;;;;;;1.92;0.60;;;19.80;72.80;;;;;;5094512;28;20046;-69
2021/08/25 07:20:55;;;;;;;2.85;0.88;;;19.90;72.90;;;;;;5094848;28;20047;-69
2021/08/25 07:23:21;;;;;;;3.60;0.82;;;19.90;72.80;;;;;;5095768;28;20109;-69
2021/08/25 07:25:46;;;;;;;3.95;0.73;;;19.90;72.80;;;;;;5095435;28;20119;-69
2021/08/25 07:28:12;;;;;;;1.60;0.70;;;19.90;72.70;;;;;;5095439;28;20351;-72
2021/08/25 07:30:38;;;;;;;1.95;1.20;;;20.00;72.80;;;;;;5095169;28;20056;-73
2021/08/25 07:33:04;;;;;;;5.40;1.05;;;20.00;72.60;;;;;;5095429;28;20036;-72
2021/08/25 07:35:30;;;;;;;1.50;0.38;;;20.00;72.20;;;;;;5077284;28;20043;-71
2021/08/25 07:37:57;;;;;;;1.50;0.30;;;20.00;72.00;;;;;;5095331;28;20044;-71
2021/08/25 07:40:22;;;;;;;0.93;0.28;;;19.90;71.70;;;;;;5094969;28;20079;-71
2021/08/25 07:42:48;;;;;;;0.95;0.20;;;19.80;71.60;;;;;;5095167;28;20174;-71
2021/08/25 07:45:14;;;;;;;1.05;0.20;;;19.80;71.60;;;;;;5095463;28;20044;-74
2021/08/25 07:47:40;;;;;;;1.13;0.30;;;19.80;71.40;;;;;;5076940;28;20032;-73
2021/08/25 07:50:06;;;;;;;1.65;0.35;;;19.70;71.60;;;;;;5094704;28;20029;-74
2021/08/25 07:52:32;;;;;;;4.45;0.30;;;19.70;71.80;;;;;;5095009;28;20051;-73
2021/08/25 07:54:58;;;;;;;0.68;0.30;;;19.80;71.90;;;;;;5094597;28;20439;-73
2021/08/25 07:57:23;;;;;;;1.27;0.30;;;19.80;71.80;;;;;;5094823;28;20039;-73
2021/08/25 07:59:49;;;;;;;2.00;0.60;;;19.80;71.50;;;;;;5094949;28;20048;-73
2021/08/25 08:02:15;;;;;;;0.32;0.20;;;19.80;71.50;;;;;;5094607;28;20048;-73
2021/08/25 08:04:41;;;;;;;1.33;0.20;;;19.80;71.70;;;;;;5094431;28;20044;-73
2021/08/25 08:07:06;;;;;;;2.10;0.50;;;19.90;71.00;;;;;;5094855;28;20040;-73
2021/08/25 08:09:32;;;;;;;2.13;0.60;;;19.90;70.90;;;;;;5094998;28;20048;-68
2021/08/25 08:11:58;;;;;;;1.65;0.20;;;19.90;71.10;;;;;;5095268;28;20316;-69
2021/08/25 08:14:24;;;;;;;1.85;0.30;;;19.90;71.20;;;;;;5077096;28;20040;-69
2021/08/25 08:16:52;;;;;;;0.60;0.30;;;19.90;71.40;;;;;;5076959;28;20059;-68
2021/08/25 08:19:20;;;;;;;2.70;0.28;;;20.00;71.60;;;;;;5094594;28;20051;-69
2021/08/25 08:21:47;;;;;;;1.70;0.47;;;20.00;71.60;;;;;;5094693;28;20044;-69
2021/08/25 08:24:14;;;;;;;0.80;0.30;;;20.00;71.70;;;;;;5094857;28;20058;-69
2021/08/25 08:26:40;;;;;;;0.50;0.20;;;20.00;71.80;;;;;;5095101;28;20048;-69
2021/08/25 08:29:06;;;;;;;2.40;0.22;;;20.00;71.80;;;;;;5094653;28;20048;-70
2021/08/25 08:31:32;;;;;;;3.72;0.30;;;20.00;71.80;;;;;;5097359;28;20401;-69
2021/08/25 08:33:58;;;;;;;0.55;0.22;;;20.10;71.90;;;;;;5098838;28;20043;-69
2021/08/25 08:36:24;;;;;;;0.80;0.20;;;20.10;71.80;;;;;;5080335;28;20044;-68
2021/08/25 08:38:50;;;;;;;0.40;0.20;;;20.10;71.90;;;;;;5098595;28;20040;-69
2021/08/25 08:41:16;;;;;;;1.00;0.20;;;20.10;71.90;;;;;;5080769;28;20048;-69
2021/08/25 08:43:42;;;;;;;0.77;0.20;;;20.10;71.90;;;;;;5098388;28;20103;-70
2021/08/25 08:46:12;;;;;;;1.08;0.20;;;20.10;71.90;;;;;;5099007;28;20047;-69
2021/08/25 08:48:38;;;;;;;0.47;0.10;;;20.10;71.90;;;;;;5080532;28;20116;-69
2021/08/25 08:51:04;;;;;;;0.95;0.20;;;20.10;71.90;;;;;;5097897;28;20044;-75
2021/08/25 08:53:30;;;;;;;0.55;0.20;;;20.10;71.90;;;;;;5098431;28;20048;-72
2021/08/25 08:55:56;;;;;;;1.45;0.22;;;20.10;71.90;;;;;;5097892;28;20373;-69
2021/08/25 08:58:22;;;;;;;1.02;0.32;;;20.10;72.40;;;;;;5098095;28;20040;-71
2021/08/25 09:00:48;;;;;;;3.60;0.30;;;20.20;72.20;;;;;;5097076;28;20063;-71
2021/08/25 09:03:20;;;;;;;1.08;0.22;;;20.10;71.90;;;;;;5097838;28;20446;-72
2021/08/25 09:05:52;;;;;;;0.93;0.30;;;20.20;71.90;;;;;;5079694;28;20090;-71
2021/08/25 09:08:23;;;;;;;0.93;0.30;;;20.20;71.90;;;;;;5097157;28;20035;-71
2021/08/25 09:11:04;;;;;;;2.00;0.30;;;20.20;72.00;;;;;;5097566;28;20140;-71
2021/08/25 09:13:49;;;;;;;1.27;0.30;;;20.20;72.10;;;;;;5079542;28;20047;-71
2021/08/25 09:16:30;;;;;;;1.90;0.25;;;20.20;72.10;;;;;;5097406;28;20051;-71
2021/08/25 09:19:09;;;;;;;1.15;0.20;;;20.20;72.10;;;;;;5097294;28;20047;-70
2021/08/25 09:21:39;;;;;;;0.80;0.20;;;20.20;72.20;;;;;;5097248;28;20058;-70
2021/08/25 09:24:05;;;;;;;0.28;0.10;;;20.20;72.20;;;;;;5096972;28;20055;-71
2021/08/25 09:26:36;;;;;;;1.00;0.20;;;20.20;72.10;;;;;;5097175;28;20059;-71
2021/08/25 09:29:21;;;;;;;1.90;0.40;;;20.20;72.20;;;;;;5096629;28;20054;-72
2021/08/25 09:31:49;;;;;;;0.55;0.10;;;20.20;72.30;;;;;;5078924;28;20427;-71
2021/08/25 09:34:29;;;;;;;1.67;0.13;;;20.20;72.40;;;;;;5083320;28;20048;-70
2021/08/25 09:37:12;;;;;;;1.45;0.20;;;20.20;72.40;;;;;;5097121;28;20044;-71
2021/08/25 09:39:43;;;;;;;0.45;0.10;;;20.20;72.40;;;;;;5096944;28;20105;-71
2021/08/25 09:42:10;;;;;;;0.75;0.10;;;20.30;72.50;;;;;;5096287;28;20052;-70
2021/08/25 09:44:36;;;;;;;1.05;0.20;;;20.30;72.50;;;;;;5096450;28;20075;-68
2021/08/25 09:47:02;;;;;;;1.08;0.20;;;20.30;72.60;;;;;;5097793;28;20413;-68
2021/08/25 09:49:27;;;;;;;1.75;0.30;;;20.30;72.60;;;;;;5096852;28;20039;-68
2021/08/25 09:51:54;;;;;;;1.55;0.20;;;20.30;72.60;;;;;;5079211;28;20057;-68
2021/08/25 09:54:21;;;;;;;1.10;0.10;;;20.30;73.30;;;;;;5096906;28;20044;-69
2021/08/25 09:56:52;;;;;;;1.25;0.38;;;20.30;72.70;;;;;;5097534;28;20039;-70
2021/08/25 09:59:18;;;;;;;1.30;0.20;;;20.40;73.40;;;;;;5096397;28;20040;-68
2021/08/25 10:01:45;;;;;;;0.93;0.08;;;20.30;72.70;;;;;;5096510;28;20055;-69
2021/08/25 10:04:14;;;;;;;1.13;0.20;;;20.30;72.80;;;;;;5079421;28;20052;-68
2021/08/25 10:06:44;;;;;;;0.98;0.20;;;20.30;72.70;;;;;;5096875;28;20054;-69
2021/08/25 10:09:11;;;;;;;0.98;0.10;;;20.40;72.70;;;;;;5096531;28;20036;-68
2021/08/25 10:11:45;;;;;;;1.10;0.15;;;20.30;72.70;;;;;;5078289;28;20044;-69
2021/08/25 10:14:14;;;;;;;0.90;0.25;;;20.30;72.70;;;;;;5096108;28;20462;-69
2021/08/25 10:16:48;;;;;;;1.85;0.10;;;20.40;72.80;;;;;;5096321;28;20036;-69
2021/08/25 10:19:24;;;;;;;1.95;0.10;;;20.30;72.80;;;;;;5078445;28;20200;-69
2021/08/25 10:21:51;;;;;;;1.95;0.20;;;20.30;72.80;;;;;;5096265;28;20458;-69
2021/08/25 10:24:17;;;;;;;1.17;0.10;;;20.40;72.90;;;;;;5096296;28;20146;-69
2021/08/25 10:26:58;;;;;;;2.10;0.35;;;20.30;72.90;;;;;;5078013;28;20215;-69
2021/08/25 10:29:25;;;;;;;0.85;0.10;;;20.40;72.90;;;;;;5096057;28;20040;-68
2021/08/25 10:31:53;;;;;;;0.40;0.10;;;20.40;73.00;;;;;;5078264;28;20043;-72
2021/08/25 10:34:26;;;;;;;0.60;0.20;;;20.40;72.90;;;;;;5078467;28;20354;-72
2021/08/25 10:37:12;;;;;;;1.65;0.25;;;20.40;72.80;;;;;;5095743;28;20455;-73
2021/08/25 10:39:40;;;;;;;1.20;0.22;;;20.40;72.50;;;;;;5096028;28;20044;-73
2021/08/25 10:42:07;;;;;;;1.65;0.10;;;20.40;72.20;;;;;;5096052;28;20040;-70
2021/08/25 10:44:39;;;;;;;3.60;0.10;;;20.40;72.30;;;;;;5096014;28;20047;-72
2021/08/25 10:47:11;;;;;;;1.52;0.30;;;20.40;73.00;;;;;;5096076;28;20093;-72
2021/08/25 10:49:44;;;;;;;1.38;0.25;;;20.40;72.90;;;;;;5095823;28;20396;-72
2021/08/25 10:52:17;;;;;;;1.88;0.20;;;20.40;72.80;;;;;;5095486;28;20127;-73
2021/08/25 10:54:49;;;;;;;2.13;0.22;;;20.40;72.70;;;;;;5094140;28;20083;-72
2021/08/25 10:57:22;;;;;;;1.45;0.20;;;20.50;72.60;;;;;;5095730;28;20137;-72
2021/08/25 10:59:48;;;;;;;0.45;0.20;;;20.40;72.20;;;;;;5095954;28;20097;-72
2021/08/25 11:02:15;;;;;;;1.20;0.25;;;20.40;72.00;;;;;;5095693;28;20068;-71
2021/08/25 11:04:42;;;;;;;0.50;0.10;;;20.40;71.90;;;;;;5095895;28;20328;-72
2021/08/25 11:07:10;;;;;;;0.70;0.20;;;20.40;71.80;;;;;;5095519;28;20105;-72
2021/08/25 11:09:37;;;;;;;1.60;0.22;;;20.40;71.40;;;;;;5095704;28;20109;-72
2021/08/25 11:12:13;;;;;;;0.65;0.10;;;20.40;71.40;;;;;;5095012;28;20055;-72
2021/08/25 11:14:59;;;;;;;1.13;0.17;;;20.40;71.40;;;;;;5098301;28;20350;-72
2021/08/25 11:17:29;;;;;;;0.57;0.10;;;20.40;71.20;;;;;;5097694;28;20039;-69
2021/08/25 11:20:04;;;;;;;0.57;0.10;;;20.40;71.40;;;;;;5115587;28;20366;-69
2021/08/25 11:22:45;;;;;;;0.45;0.10;;;20.40;71.50;;;;;;5115847;28;20054;-70
2021/08/25 11:25:18;;;;;;;0.43;0.20;;;20.40;71.70;;;;;;5115885;28;20343;-70
2021/08/25 11:27:44;;;;;;;1.55;0.20;;;20.40;71.90;;;;;;5115528;28;20043;-70
2021/08/25 11:30:13;;;;;;;0.98;0.17;;;20.40;72.10;;;;;;5115825;28;20055;-70
2021/08/25 11:33:08;;;;;;;1.75;0.20;;;20.50;72.20;;;;;;5115321;28;20040;-70
2021/08/25 11:35:43;;;;;;;1.45;0.20;;;20.50;72.20;;;;;;5115631;28;20043;-70
2021/08/25 11:38:17;;;;;;;0.20;0.10;;;20.50;72.30;;;;;;5092771;28;20048;-70
2021/08/25 11:40:45;;;;;;;1.83;0.10;;;20.50;72.40;;;;;;5094901;28;20048;-70
2021/08/25 11:43:16;;;;;;;1.88;0.10;;;20.40;72.40;;;;;;5095348;28;20416;-69
2021/08/25 11:45:44;;;;;;;0.52;0.10;;;20.40;72.40;;;;;;5077029;28;20094;-70
2021/08/25 11:48:10;;;;;;;0.80;0.25;;;20.40;72.40;;;;;;5095112;28;20040;-68
2021/08/25 11:50:40;;;;;;;2.63;0.20;;;20.50;72.40;;;;;;5095033;28;20374;-70
2021/08/25 11:53:20;;;;;;;1.20;0.10;;;20.50;72.30;;;;;;5094834;28;20115;-69
2021/08/25 11:55:48;;;;;;;0.82;0.22;;;20.50;72.20;;;;;;5095106;28;20071;-69
2021/08/25 11:58:31;;;;;;;1.42;0.20;;;20.50;72.20;;;;;;5095071;28;20098;-68
2021/08/25 12:00:58;;;;;;;2.00;0.30;;;20.50;72.10;;;;;;5094899;28;20048;-69
2021/08/25 12:03:44;;;;;;;1.35;0.20;;;20.50;72.20;;;;;;5094896;28;20290;-69
2021/08/25 12:06:17;;;;;;;2.22;0.20;;;20.50;72.10;;;;;;5097028;28;20123;-69
2021/08/25 12:08:44;;;;;;;3.53;0.25;;;20.50;72.20;;;;;;5098619;28;20040;-69
2021/08/25 12:11:12;;;;;;;2.13;0.20;;;20.50;72.20;;;;;;5098920;28;20046;-69
2021/08/25 12:13:46;;;;;;;1.65;0.30;;;20.50;72.20;;;;;;5098967;28;20121;-69
2021/08/25 12:16:30;;;;;;;1.65;0.20;;;20.50;72.20;;;;;;5099151;28;20040;-69
2021/08/25 12:19:03;;;;;;;3.00;0.32;;;20.50;72.20;;;;;;5098723;28;20039;-69
2021/08/25 12:21:34;;;;;;;1.13;0.57;;;20.50;72.20;;;;;;5098522;28;20051;-69
2021/08/25 12:24:06;;;;;;;0.88;0.25;;;20.50;72.20;;;;;;5098538;28;20051;-69
2021/08/25 12:26:35;;;;;;;1.02;0.15;;;20.50;72.20;;;;;;5098758;28;20044;-68
2021/08/25 12:29:03;;;;;;;0.85;0.20;;;20.50;72.20;;;;;;5098778;28;20047;-67
2021/08/25 12:31:33;;;;;;;0.95;0.35;;;20.50;72.30;;;;;;5098718;28;20455;-67
2021/08/25 12:34:10;;;;;;;6.20;1.15;;;20.50;72.20;;;;;;5098373;28;20047;-71
2021/08/25 12:36:42;;;;;;;5.93;0.70;;;20.50;71.90;;;;;;5098566;28;20122;-68
2021/08/25 12:39:10;;;;;;;6.35;0.80;;;20.50;72.00;;;;;;5098503;28;20112;-68
2021/08/25 12:41:38;;;;;;;2.65;0.60;;;20.50;72.00;;;;;;5098961;28;20040;-69
2021/08/25 12:44:05;;;;;;;3.15;0.63;;;20.50;72.00;;;;;;5098542;28;20340;-68
2021/08/25 12:46:47;;;;;;;7.15;0.68;;;20.50;72.10;;;;;;5098583;28;20351;-68
2021/08/25 12:49:12;;;;;;;5.68;0.68;;;20.50;72.10;;;;;;5098170;28;20048;-68
2021/08/25 12:51:38;;;;;;;2.75;0.40;;;20.50;72.20;;;;;;5098160;28;20043;-68